Time;durP1;ratioP1;P1;durP2;ratioP2;P2;SDS_P1;SDS_P2;PMS_P1;PMS_P2;Temp;Humidity;BMP_temperature;BMP_pressure;BME280_temperature;BME280_humidity;BME280_pressure;Samples;Min_cycle;Max_cycle;Signal;HPM_P1;HPM_P2
2021/12/22 00:01:28;;;;;;;23.50;9.40;;;;;;;;;;6284267;28;20090;-84
2021/12/22 00:04:32;;;;;;;22.15;8.18;;;;;;;;;;6277622;28;20048;-82
2021/12/22 00:07:34;;;;;;;20.30;9.00;;;;;;;;;;6276687;28;20052;-83
2021/12/22 00:10:36;;;;;;;16.85;8.00;;;;;;;;;;6304491;28;20210;-82
2021/12/22 00:13:38;;;;;;;17.85;7.55;;;;;;;;;;6259893;28;20070;-83
2021/12/22 00:16:39;;;;;;;16.23;7.18;;;;;;;;;;6301089;28;20050;-83
2021/12/22 00:19:41;;;;;;;25.80;8.60;;;;;;;;;;6319556;28;20043;-82
2021/12/22 00:22:43;;;;;;;22.33;9.73;;;;;;;;;;6291707;28;20500;-84
2021/12/22 00:25:44;;;;;;;22.27;8.82;;;;;;;;;;6280214;28;20166;-85
2021/12/22 00:28:47;;;;;;;17.73;7.72;;;;;;;;;;6298888;28;20470;-85
2021/12/22 00:35:09;;;;;;;18.25;7.13;;;;;;;;;;6311791;28;20117;-84
2021/12/22 00:38:14;;;;;;;17.35;7.65;;;;;;;;;;6311269;28;20105;-84
2021/12/22 00:41:16;;;;;;;19.73;7.80;;;;;;;;;;6291500;28;20122;-85
2021/12/22 00:44:18;;;;;;;18.33;7.97;;;;;;;;;;6304299;28;20051;-84
2021/12/22 00:47:26;;;;;;;23.92;8.02;;;;;;;;;;6306911;28;20453;-85
2021/12/22 00:50:28;;;;;;;19.45;8.20;;;;;;;;;;6314492;28;20048;-86
2021/12/22 00:53:29;;;;;;;14.10;7.40;;;;;;;;;;6299203;28;20621;-85
2021/12/22 00:56:31;;;;;;;19.05;8.68;;;;;;;;;;6289672;28;20052;-85
2021/12/22 00:59:34;;;;;;;18.35;8.23;;;;;;;;;;6281820;28;20048;-84
2021/12/22 01:02:36;;;;;;;16.67;7.82;;;;;;;;;;6282751;28;20301;-85
2021/12/22 01:05:38;;;;;;;17.02;7.35;;;;;;;;;;6317862;28;20555;-85
2021/12/22 01:08:39;;;;;;;15.23;7.53;;;;;;;;;;6318802;28;20050;-84
2021/12/22 01:11:41;;;;;;;16.33;7.10;;;;;;;;;;6299769;28;20145;-86
2021/12/22 01:14:43;;;;;;;16.83;8.25;;;;;;;;;;6283925;28;20117;-85
2021/12/22 01:17:48;;;;;;;22.08;7.93;;;;;;;;;;6281961;28;20045;-85
2021/12/22 01:24:34;;;;;;;21.75;9.07;;;;;;;;;;6276056;28;20080;-85
2021/12/22 01:27:40;;;;;;;22.85;8.38;;;;;;;;;;6273307;28;20048;-88
2021/12/22 01:30:45;;;;;;;22.00;8.73;;;;;;;;;;6272701;28;20033;-85
2021/12/22 01:33:47;;;;;;;14.63;6.75;;;;;;;;;;6311343;28;20063;-85
2021/12/22 01:36:48;;;;;;;19.95;6.93;;;;;;;;;;6292252;28;20044;-84
2021/12/22 01:39:50;;;;;;;19.50;7.95;;;;;;;;;;6295048;28;20048;-85
2021/12/22 01:42:55;;;;;;;22.70;7.97;;;;;;;;;;6280986;28;20049;-85
2021/12/22 01:49:10;;;;;;;16.95;7.53;;;;;;;;;;6320273;28;20115;-84
2021/12/22 01:52:12;;;;;;;19.25;7.70;;;;;;;;;;6322650;28;20068;-85
2021/12/22 01:55:31;;;;;;;18.70;7.32;;;;;;;;;;6306646;28;20040;-84
2021/12/22 01:58:36;;;;;;;28.05;10.07;;;;;;;;;;6308114;28;20036;-84
2021/12/22 02:01:39;;;;;;;26.20;10.88;;;;;;;;;;6281891;28;20040;-85
2021/12/22 02:04:41;;;;;;;25.67;10.18;;;;;;;;;;6292087;28;20067;-86
2021/12/22 02:07:43;;;;;;;20.00;8.65;;;;;;;;;;6286860;28;20055;-84
2021/12/22 02:10:47;;;;;;;15.93;7.55;;;;;;;;;;6304119;28;20066;-84
2021/12/22 02:13:57;;;;;;;13.60;6.85;;;;;;;;;;6303830;28;20066;-83
2021/12/22 02:16:59;;;;;;;18.08;7.60;;;;;;;;;;6308659;28;20127;-83
2021/12/22 02:20:01;;;;;;;16.63;6.47;;;;;;;;;;6275585;28;20078;-85
2021/12/22 02:23:02;;;;;;;15.77;7.30;;;;;;;;;;6304015;28;20119;-83
2021/12/22 02:26:13;;;;;;;15.15;6.60;;;;;;;;;;6299989;28;20044;-85
2021/12/22 02:29:21;;;;;;;11.25;6.40;;;;;;;;;;6318080;28;20501;-84
2021/12/22 02:35:46;;;;;;;14.50;6.32;;;;;;;;;;6276241;28;20047;-86
2021/12/22 02:38:55;;;;;;;17.20;7.15;;;;;;;;;;6305379;28;20049;-85
2021/12/22 02:41:56;;;;;;;10.88;5.88;;;;;;;;;;6297701;28;20050;-85
2021/12/22 02:45:06;;;;;;;18.10;6.63;;;;;;;;;;6301278;28;20170;-84
2021/12/22 02:48:08;;;;;;;12.35;5.82;;;;;;;;;;6302952;28;20040;-86
2021/12/22 02:51:10;;;;;;;14.68;6.72;;;;;;;;;;6319386;28;20071;-85
2021/12/22 02:54:20;;;;;;;14.05;6.60;;;;;;;;;;6295586;28;20549;-86
2021/12/22 02:57:37;;;;;;;21.48;8.00;;;;;;;;;;6276940;28;20048;-85
2021/12/22 03:04:05;;;;;;;20.88;8.65;;;;;;;;;;6282276;28;20044;-84
2021/12/22 03:07:13;;;;;;;21.30;8.27;;;;;;;;;;6279939;28;20051;-86
2021/12/22 03:10:18;;;;;;;21.20;8.77;;;;;;;;;;6292584;28;20047;-85
2021/12/22 03:13:21;;;;;;;21.33;7.90;;;;;;;;;;6291494;28;20046;-84
2021/12/22 03:16:22;;;;;;;;;;;;;;;;;;6308010;28;20125;-85
2021/12/22 03:19:29;;;;;;;23.98;6.55;;;;;;;;;;6298039;28;19920;-84
2021/12/22 03:22:31;;;;;;;17.80;7.47;;;;;;;;;;6316770;28;20050;-85
2021/12/22 03:25:33;;;;;;;18.20;7.82;;;;;;;;;;6281888;28;20516;-86
2021/12/22 03:28:35;;;;;;;14.80;6.93;;;;;;;;;;6298465;28;20051;-85
2021/12/22 03:31:37;;;;;;;15.38;6.25;;;;;;;;;;6309109;28;20055;-83
2021/12/22 03:34:40;;;;;;;13.70;6.05;;;;;;;;;;6276586;28;20123;-85
2021/12/22 03:37:43;;;;;;;13.30;6.75;;;;;;;;;;6294791;28;20398;-85
2021/12/22 03:40:45;;;;;;;10.95;5.88;;;;;;;;;;6314366;28;20531;-85
2021/12/22 03:43:46;;;;;;;11.98;5.15;;;;;;;;;;6277204;28;20171;-84
2021/12/22 03:46:50;;;;;;;12.20;5.97;;;;;;;;;;6310904;28;20059;-87
2021/12/22 03:49:52;;;;;;;15.30;6.10;;;;;;;;;;6317689;28;20085;-85
2021/12/22 03:52:53;;;;;;;18.23;5.78;;;;;;;;;;6272117;28;20052;-85
2021/12/22 03:55:55;;;;;;;13.60;6.63;;;;;;;;;;6295255;28;20050;-85
2021/12/22 03:58:57;;;;;;;15.38;6.53;;;;;;;;;;6299728;28;20096;-86
2021/12/22 04:01:58;;;;;;;15.32;6.68;;;;;;;;;;6299993;28;20068;-83
2021/12/22 04:05:00;;;;;;;12.45;5.97;;;;;;;;;;6300985;28;20109;-84
2021/12/22 04:08:02;;;;;;;11.98;6.10;;;;;;;;;;6290898;28;20051;-85
2021/12/22 04:11:04;;;;;;;12.70;5.95;;;;;;;;;;6297082;28;20036;-86
2021/12/22 04:14:06;;;;;;;15.75;6.65;;;;;;;;;;6296061;28;20040;-86
2021/12/22 04:17:09;;;;;;;10.95;5.72;;;;;;;;;;6276116;28;20045;-85
2021/12/22 04:20:11;;;;;;;13.88;7.05;;;;;;;;;;6275337;28;20642;-85
2021/12/22 04:23:14;;;;;;;11.98;6.25;;;;;;;;;;6275922;28;20047;-86
2021/12/22 04:26:16;;;;;;;16.80;6.30;;;;;;;;;;6281432;28;20035;-83
2021/12/22 04:29:18;;;;;;;13.48;5.65;;;;;;;;;;6299748;28;20048;-85
2021/12/22 04:32:20;;;;;;;13.63;6.03;;;;;;;;;;6300327;28;20039;-85
2021/12/22 04:35:22;;;;;;;15.43;6.70;;;;;;;;;;6318304;28;20068;-85
2021/12/22 04:38:24;;;;;;;14.65;6.57;;;;;;;;;;6282645;28;20051;-85
2021/12/22 04:41:26;;;;;;;16.33;7.35;;;;;;;;;;6292198;28;20127;-84
2021/12/22 04:44:28;;;;;;;16.48;7.15;;;;;;;;;;6299302;28;20040;-86
2021/12/22 04:47:31;;;;;;;13.48;5.63;;;;;;;;;;6283655;28;20040;-84
2021/12/22 04:50:33;;;;;;;13.65;6.25;;;;;;;;;;6275110;28;20048;-85
2021/12/22 04:53:46;;;;;;;17.58;7.85;;;;;;;;;;6276930;28;20047;-85
2021/12/22 04:56:48;;;;;;;;;;;;;;;;;;6275958;28;20064;-84
2021/12/22 04:59:49;;;;;;;14.77;6.00;;;;;;;;;;6279977;28;19920;-85
2021/12/22 05:02:51;;;;;;;17.17;7.07;;;;;;;;;;6293055;28;20056;-85
2021/12/22 05:05:53;;;;;;;14.75;6.45;;;;;;;;;;6314409;28;20048;-85
2021/12/22 05:08:54;;;;;;;14.55;6.68;;;;;;;;;;6289014;28;20082;-85
2021/12/22 05:11:56;;;;;;;15.50;5.93;;;;;;;;;;6288873;28;20055;-85
2021/12/22 05:14:58;;;;;;;11.05;5.95;;;;;;;;;;6305393;28;20044;-85
2021/12/22 05:21:01;;;;;;;14.77;6.60;;;;;;;;;;6321731;28;20062;-84
2021/12/22 05:24:03;;;;;;;18.58;6.63;;;;;;;;;;6295374;28;20353;-84
2021/12/22 05:27:08;;;;;;;17.00;5.95;;;;;;;;;;6288530;28;20063;-85
2021/12/22 05:30:11;;;;;;;13.60;6.38;;;;;;;;;;6283462;28;20505;-84
2021/12/22 05:33:14;;;;;;;14.70;5.60;;;;;;;;;;6272780;28;20504;-86
2021/12/22 05:36:16;;;;;;;15.63;6.18;;;;;;;;;;6277064;28;20053;-84
2021/12/22 05:39:18;;;;;;;13.18;5.72;;;;;;;;;;6293177;28;20067;-85
2021/12/22 05:42:19;;;;;;;13.98;5.93;;;;;;;;;;6285567;28;20054;-86
2021/12/22 05:45:21;;;;;;;12.10;5.68;;;;;;;;;;6298301;28;20121;-86
2021/12/22 05:48:23;;;;;;;10.30;6.22;;;;;;;;;;6312037;28;20166;-84
2021/12/22 05:51:27;;;;;;;10.30;6.03;;;;;;;;;;6280622;28;20269;-84
2021/12/22 05:54:29;;;;;;;17.42;6.68;;;;;;;;;;6293004;28;20101;-86
2021/12/22 05:57:30;;;;;;;14.27;7.00;;;;;;;;;;6279081;28;20048;-87
2021/12/22 06:00:32;;;;;;;15.15;6.32;;;;;;;;;;6284624;28;20057;-87
2021/12/22 06:03:34;;;;;;;20.13;7.07;;;;;;;;;;6304231;28;20064;-87
2021/12/22 06:06:36;;;;;;;13.55;6.20;;;;;;;;;;6292230;28;20037;-85
2021/12/22 06:09:37;;;;;;;15.90;6.68;;;;;;;;;;6311908;28;20052;-85
2021/12/22 06:12:39;;;;;;;13.00;6.93;;;;;;;;;;6278045;28;20047;-85
2021/12/22 06:15:41;;;;;;;14.85;7.22;;;;;;;;;;6302225;28;20047;-86
2021/12/22 06:18:44;;;;;;;16.48;7.63;;;;;;;;;;6300541;28;20059;-84
2021/12/22 06:21:46;;;;;;;26.92;9.25;;;;;;;;;;6281366;28;20124;-86
2021/12/22 06:24:48;;;;;;;24.02;9.70;;;;;;;;;;6308368;28;20578;-88
2021/12/22 06:27:50;;;;;;;28.73;11.40;;;;;;;;;;6302587;28;20040;-85
2021/12/22 06:30:52;;;;;;;23.20;9.15;;;;;;;;;;6284840;28;20129;-84
2021/12/22 06:33:54;;;;;;;17.40;9.90;;;;;;;;;;6286616;28;20055;-84
2021/12/22 06:36:55;;;;;;;24.25;11.30;;;;;;;;;;6319652;28;20052;-84
2021/12/22 06:40:04;;;;;;;31.10;10.50;;;;;;;;;;6274423;28;20037;-89
2021/12/22 06:43:06;;;;;;;21.35;8.80;;;;;;;;;;6291790;28;20083;-86
2021/12/22 06:46:09;;;;;;;19.10;7.55;;;;;;;;;;6287512;28;20162;-85
2021/12/22 06:49:11;;;;;;;17.00;7.97;;;;;;;;;;6295253;28;20051;-86
2021/12/22 06:52:13;;;;;;;21.23;8.85;;;;;;;;;;6302024;28;20485;-88
2021/12/22 06:55:15;;;;;;;22.45;8.18;;;;;;;;;;6278733;28;20052;-84
2021/12/22 06:58:17;;;;;;;21.35;8.48;;;;;;;;;;6262115;28;20090;-84
2021/12/22 07:01:20;;;;;;;17.67;8.98;;;;;;;;;;6291363;28;20066;-85
2021/12/22 07:04:25;;;;;;;22.40;7.82;;;;;;;;;;6304142;28;20170;-86
2021/12/22 07:07:27;;;;;;;20.35;8.45;;;;;;;;;;6303098;28;20048;-86
2021/12/22 07:10:28;;;;;;;17.42;8.18;;;;;;;;;;6299741;28;20127;-86
2021/12/22 07:13:31;;;;;;;14.27;7.30;;;;;;;;;;6292358;28;20044;-83
2021/12/22 07:16:33;;;;;;;14.13;6.72;;;;;;;;;;6311792;28;20042;-84
2021/12/22 07:19:34;;;;;;;18.35;7.43;;;;;;;;;;6302728;28;20044;-85
2021/12/22 07:22:36;;;;;;;12.80;6.90;;;;;;;;;;6319371;28;20040;-86
2021/12/22 07:25:38;;;;;;;18.00;8.27;;;;;;;;;;6296447;28;20119;-85
2021/12/22 07:28:45;;;;;;;23.33;9.80;;;;;;;;;;6287157;28;20506;-86
2021/12/22 07:31:46;;;;;;;23.13;8.95;;;;;;;;;;6312864;28;20036;-84
2021/12/22 07:34:59;;;;;;;16.60;8.93;;;;;;;;;;6297369;28;20054;-83
2021/12/22 07:38:38;;;;;;;21.42;10.68;;;;;;;;;;6303898;28;20047;-84
2021/12/22 07:41:40;;;;;;;18.70;8.88;;;;;;;;;;6297072;28;20040;-83
2021/12/22 07:44:41;;;;;;;18.67;7.47;;;;;;;;;;6298870;28;20830;-80
2021/12/22 07:47:43;;;;;;;18.70;8.85;;;;;;;;;;6292405;28;20050;-82
2021/12/22 07:50:45;;;;;;;28.25;13.07;;;;;;;;;;6292633;28;20063;-80
2021/12/22 07:53:46;;;;;;;27.75;11.80;;;;;;;;;;6275729;28;20051;-81
2021/12/22 07:56:48;;;;;;;29.45;11.73;;;;;;;;;;6287843;28;20048;-81
2021/12/22 07:59:50;;;;;;;23.30;10.10;;;;;;;;;;6321748;28;20112;-83
2021/12/22 08:02:52;;;;;;;22.80;10.32;;;;;;;;;;6302594;28;20148;-83
2021/12/22 08:06:14;;;;;;;24.58;10.75;;;;;;;;;;6307772;28;20048;-83
2021/12/22 08:09:15;;;;;;;23.95;11.65;;;;;;;;;;6306798;28;20050;-83
2021/12/22 08:12:17;;;;;;;25.90;12.20;;;;;;;;;;6274438;28;20067;-82
2021/12/22 08:15:18;;;;;;;26.30;11.60;;;;;;;;;;6319315;28;20086;-83
2021/12/22 08:18:20;;;;;;;33.45;15.77;;;;;;;;;;6293265;28;20041;-83
2021/12/22 08:21:22;;;;;;;41.15;16.15;;;;;;;;;;6255131;28;20048;-81
2021/12/22 08:24:24;;;;;;;36.72;15.35;;;;;;;;;;6279001;28;20382;-82
2021/12/22 08:27:26;;;;;;;51.50;18.23;;;;;;;;;;6303169;28;20127;-82
2021/12/22 08:30:28;;;;;;;70.10;21.00;;;;;;;;;;6315774;28;20112;-80
2021/12/22 08:33:38;;;;;;;;;;;;;;;;;;6295613;28;20066;-82
2021/12/22 08:40:03;;;;;;;24.02;10.85;;;;;;;;;;6300912;28;20044;-83
2021/12/22 08:43:05;;;;;;;21.42;10.88;;;;;;;;;;6284095;28;20045;-83
2021/12/22 08:46:06;;;;;;;27.10;10.30;;;;;;;;;;6283832;28;20041;-82
2021/12/22 08:49:10;;;;;;;26.35;11.07;;;;;;;;;;6286601;28;20539;-82
2021/12/22 08:52:14;;;;;;;24.38;11.20;;;;;;;;;;6305216;28;20112;-84
2021/12/22 08:55:19;;;;;;;25.40;12.38;;;;;;;;;;6295021;28;20041;-83
2021/12/22 08:58:20;;;;;;;27.77;13.07;;;;;;;;;;6298726;28;20075;-82
2021/12/22 09:01:25;;;;;;;38.25;14.68;;;;;;;;;;6273184;28;20120;-82
2021/12/22 09:04:33;;;;;;;29.42;12.95;;;;;;;;;;6280960;28;20039;-80
2021/12/22 09:07:35;;;;;;;29.13;12.20;;;;;;;;;;6273904;28;20585;-80
2021/12/22 09:10:37;;;;;;;36.88;15.55;;;;;;;;;;6289833;28;20047;-80
2021/12/22 09:13:43;;;;;;;34.15;15.60;;;;;;;;;;6255843;28;20049;-82
2021/12/22 09:16:44;;;;;;;36.42;15.38;;;;;;;;;;6308351;28;20084;-80
2021/12/22 09:19:52;;;;;;;35.15;17.30;;;;;;;;;;6323063;28;20434;-83
2021/12/22 09:22:54;;;;;;;42.28;17.58;;;;;;;;;;6302856;28;20045;-81
2021/12/22 09:25:56;;;;;;;44.92;17.80;;;;;;;;;;6297366;28;20074;-82
2021/12/22 09:29:01;;;;;;;42.25;18.58;;;;;;;;;;6286972;28;20055;-83
2021/12/22 09:32:04;;;;;;;36.25;16.45;;;;;;;;;;6299675;28;20045;-81
2021/12/22 09:35:07;;;;;;;83.65;34.95;;;;;;;;;;6306922;28;20586;-82
2021/12/22 09:38:09;;;;;;;62.38;27.65;;;;;;;;;;6286857;28;20052;-81
2021/12/22 09:41:12;;;;;;;35.08;15.15;;;;;;;;;;6309885;28;20036;-82
2021/12/22 09:44:13;;;;;;;47.63;20.50;;;;;;;;;;6289111;28;20055;-82
2021/12/22 09:47:25;;;;;;;65.53;28.45;;;;;;;;;;6284153;28;20158;-82
2021/12/22 09:50:45;;;;;;;52.55;23.88;;;;;;;;;;6287168;28;20047;-83
2021/12/22 09:53:54;;;;;;;33.97;15.75;;;;;;;;;;6302877;28;20632;-82
2021/12/22 09:56:56;;;;;;;35.92;17.17;;;;;;;;;;6311565;28;20127;-84
2021/12/22 09:59:59;;;;;;;34.83;16.35;;;;;;;;;;6273918;28;20287;-84
2021/12/22 10:03:06;;;;;;;37.10;15.32;;;;;;;;;;6318693;28;20538;-82
2021/12/22 10:06:08;;;;;;;33.10;13.70;;;;;;;;;;6308727;28;20050;-82
2021/12/22 10:09:10;;;;;;;32.95;15.35;;;;;;;;;;6294855;28;20056;-83
2021/12/22 10:12:22;;;;;;;29.30;12.95;;;;;;;;;;6283797;28;20055;-83
2021/12/22 10:15:29;;;;;;;24.63;11.70;;;;;;;;;;6281065;28;20224;-82
2021/12/22 10:18:31;;;;;;;22.60;11.77;;;;;;;;;;6310229;28;20048;-83
2021/12/22 10:21:36;;;;;;;25.73;11.98;;;;;;;;;;6283469;28;20108;-82
2021/12/22 10:24:41;;;;;;;19.45;10.10;;;;;;;;;;6302035;28;20064;-83
2021/12/22 10:27:45;;;;;;;24.27;11.15;;;;;;;;;;6315314;28;20068;-80
2021/12/22 10:30:48;;;;;;;77.07;27.20;;;;;;;;;;6304184;28;20114;-81
2021/12/22 10:33:50;;;;;;;22.75;10.95;;;;;;;;;;6297454;28;20127;-82
2021/12/22 10:36:54;;;;;;;24.20;11.50;;;;;;;;;;6283739;28;20044;-82
2021/12/22 10:39:56;;;;;;;30.73;11.02;;;;;;;;;;6279966;28;20052;-81
2021/12/22 10:43:00;;;;;;;23.33;11.25;;;;;;;;;;6286435;28;20089;-82
2021/12/22 10:46:04;;;;;;;18.23;9.02;;;;;;;;;;6300923;28;20044;-83
2021/12/22 10:49:15;;;;;;;24.00;11.40;;;;;;;;;;6283481;28;20045;-83
2021/12/22 10:52:23;;;;;;;29.17;12.27;;;;;;;;;;6285831;28;20051;-80
2021/12/22 10:55:25;;;;;;;19.80;9.45;;;;;;;;;;6306557;28;20048;-82
2021/12/22 10:58:30;;;;;;;29.83;13.15;;;;;;;;;;6308122;28;20048;-82
2021/12/22 11:01:36;;;;;;;26.60;11.73;;;;;;;;;;6306176;28;20228;-82
2021/12/22 11:04:43;;;;;;;22.80;11.80;;;;;;;;;;6324606;28;20063;-84
2021/12/22 11:07:45;;;;;;;18.35;10.23;;;;;;;;;;6309493;28;20113;-82
2021/12/22 11:10:49;;;;;;;22.58;14.55;;;;;;;;;;6304985;28;20039;-82
2021/12/22 11:14:02;;;;;;;17.90;9.00;;;;;;;;;;6307505;28;20123;-83
2021/12/22 11:17:12;;;;;;;20.65;9.60;;;;;;;;;;6293951;28;20770;-82
2021/12/22 11:20:14;;;;;;;14.82;8.35;;;;;;;;;;6301292;28;20062;-82
2021/12/22 11:23:15;;;;;;;17.63;8.23;;;;;;;;;;6266867;28;20044;-82
2021/12/22 11:26:17;;;;;;;14.63;7.80;;;;;;;;;;6295291;28;20045;-81
2021/12/22 11:29:19;;;;;;;16.27;7.90;;;;;;;;;;6317286;28;20038;-82
2021/12/22 11:32:27;;;;;;;15.15;7.35;;;;;;;;;;6290284;28;20040;-81
2021/12/22 11:35:31;;;;;;;17.17;9.00;;;;;;;;;;6307593;28;20036;-82
2021/12/22 11:38:33;;;;;;;17.77;8.52;;;;;;;;;;6322116;28;20115;-81
2021/12/22 11:41:43;;;;;;;14.43;8.13;;;;;;;;;;6305096;28;20070;-82
2021/12/22 11:44:48;;;;;;;18.27;7.85;;;;;;;;;;6319293;28;20064;-84
2021/12/22 11:47:53;;;;;;;17.67;8.43;;;;;;;;;;6321382;28;20608;-80
2021/12/22 11:51:00;;;;;;;16.17;8.82;;;;;;;;;;6321842;28;20123;-80
2021/12/22 11:54:08;;;;;;;18.20;8.18;;;;;;;;;;6322813;28;20060;-80
2021/12/22 11:57:18;;;;;;;16.95;8.73;;;;;;;;;;6281224;28;20123;-81
2021/12/22 12:00:34;;;;;;;15.43;8.60;;;;;;;;;;6304913;28;20119;-80
2021/12/22 12:03:44;;;;;;;19.27;9.38;;;;;;;;;;6315313;28;20056;-80
2021/12/22 12:06:49;;;;;;;16.77;8.68;;;;;;;;;;6303044;28;20062;-80
2021/12/22 12:09:50;;;;;;;17.90;9.15;;;;;;;;;;6304053;28;20044;-80
2021/12/22 12:12:53;;;;;;;19.58;9.52;;;;;;;;;;6304452;28;20112;-81
2021/12/22 12:23:33;;;;;;;15.27;8.32;;;;;;;;;;6202291;28;20044;-81
2021/12/22 12:26:36;;;;;;;18.38;8.43;;;;;;;;;;6318222;28;20103;-81
2021/12/22 12:29:56;;;;;;;15.98;7.80;;;;;;;;;;6285800;28;20070;-81
2021/12/22 12:33:00;;;;;;;19.58;9.75;;;;;;;;;;6278068;28;20060;-81
2021/12/22 12:36:06;;;;;;;22.77;9.93;;;;;;;;;;6261898;28;20070;-80
2021/12/22 12:39:08;;;;;;;18.58;9.02;;;;;;;;;;6312725;28;20042;-81
2021/12/22 12:42:10;;;;;;;23.40;9.63;;;;;;;;;;6271195;28;20085;-81
2021/12/22 12:45:50;;;;;;;17.20;9.02;;;;;;;;;;6288709;28;20490;-81
2021/12/22 12:49:07;;;;;;;30.38;12.75;;;;;;;;;;6239457;28;20119;-81
2021/12/22 12:52:11;;;;;;;16.10;7.97;;;;;;;;;;6213087;28;20162;-81
2021/12/22 12:55:14;;;;;;;17.88;7.95;;;;;;;;;;6312047;28;20123;-81
2021/12/22 12:58:28;;;;;;;19.20;8.85;;;;;;;;;;6315825;28;20040;-82
2021/12/22 13:01:45;;;;;;;17.33;9.07;;;;;;;;;;6306372;28;20036;-82
2021/12/22 13:04:53;;;;;;;17.13;9.02;;;;;;;;;;6298201;28;20107;-82
2021/12/22 13:08:03;;;;;;;19.83;9.05;;;;;;;;;;6298185;28;20523;-81
2021/12/22 13:11:12;;;;;;;21.05;9.57;;;;;;;;;;6310528;28;20048;-82
2021/12/22 13:18:03;;;;;;;22.15;10.43;;;;;;;;;;6295238;28;20186;-82
2021/12/22 13:21:07;;;;;;;21.55;9.88;;;;;;;;;;6282076;28;20067;-82
2021/12/22 13:24:18;;;;;;;21.52;9.93;;;;;;;;;;6281167;28;20051;-81
2021/12/22 13:27:30;;;;;;;17.92;9.20;;;;;;;;;;6313037;28;20102;-82
2021/12/22 13:30:43;;;;;;;18.52;8.70;;;;;;;;;;6298809;28;20131;-82
2021/12/22 13:33:54;;;;;;;22.40;10.18;;;;;;;;;;6294473;28;20040;-83
2021/12/22 13:36:59;;;;;;;24.92;11.20;;;;;;;;;;6301736;28;20178;-82
2021/12/22 13:40:00;;;;;;;17.73;8.73;;;;;;;;;;6288833;28;20052;-81
2021/12/22 13:43:03;;;;;;;32.03;13.63;;;;;;;;;;6296592;28;20649;-81
2021/12/22 13:46:23;;;;;;;19.95;10.20;;;;;;;;;;6309239;28;20153;-81
2021/12/22 13:49:25;;;;;;;33.00;12.93;;;;;;;;;;6279254;28;20052;-80
2021/12/22 13:52:27;;;;;;;19.98;10.13;;;;;;;;;;6295982;28;20147;-80
2021/12/22 13:55:28;;;;;;;33.65;15.13;;;;;;;;;;6312872;28;20476;-81
2021/12/22 13:58:34;;;;;;;27.65;11.93;;;;;;;;;;6319899;28;20048;-80
2021/12/22 14:02:03;;;;;;;30.80;14.02;;;;;;;;;;6290731;28;20044;-80
2021/12/22 14:05:31;;;;;;;33.38;13.68;;;;;;;;;;6299915;28;20044;-81
2021/12/22 14:08:34;;;;;;;30.15;14.82;;;;;;;;;;6297857;28;20044;-80
2021/12/22 14:11:39;;;;;;;20.08;11.52;;;;;;;;;;6319481;28;20124;-80
2021/12/22 14:14:45;;;;;;;24.67;10.98;;;;;;;;;;6280718;28;20500;-81
2021/12/22 14:17:47;;;;;;;21.65;11.05;;;;;;;;;;6279670;28;20139;-79
2021/12/22 14:20:48;;;;;;;30.58;12.40;;;;;;;;;;6284759;28;20046;-80
2021/12/22 14:23:59;;;;;;;22.95;11.05;;;;;;;;;;6302001;28;20057;-80
2021/12/22 14:27:03;;;;;;;22.00;10.35;;;;;;;;;;6298354;28;20058;-81
2021/12/22 14:30:20;;;;;;;20.20;10.38;;;;;;;;;;6282710;28;20058;-81
2021/12/22 14:33:30;;;;;;;26.00;11.63;;;;;;;;;;6294531;28;20086;-81
2021/12/22 14:36:46;;;;;;;26.73;12.30;;;;;;;;;;6292358;28;20123;-82
2021/12/22 14:39:47;;;;;;;22.10;11.55;;;;;;;;;;6302927;28;20043;-80
2021/12/22 14:43:07;;;;;;;26.98;11.65;;;;;;;;;;6292697;28;20044;-80
2021/12/22 14:46:11;;;;;;;30.88;12.82;;;;;;;;;;6307080;28;20047;-80
2021/12/22 14:49:23;;;;;;;25.55;10.82;;;;;;;;;;6291930;28;20044;-79
2021/12/22 14:52:25;;;;;;;20.15;9.80;;;;;;;;;;6277761;28;20178;-80
2021/12/22 14:55:34;;;;;;;23.77;10.60;;;;;;;;;;6289343;28;20045;-80
2021/12/22 14:58:37;;;;;;;22.50;11.32;;;;;;;;;;6280068;28;20096;-81
2021/12/22 15:01:39;;;;;;;23.42;11.48;;;;;;;;;;6302431;28;20113;-80
2021/12/22 15:04:40;;;;;;;24.40;9.55;;;;;;;;;;6319527;28;20370;-80
2021/12/22 15:07:42;;;;;;;23.73;11.45;;;;;;;;;;6317185;28;20054;-80
2021/12/22 15:10:44;;;;;;;22.58;11.27;;;;;;;;;;6298514;28;20047;-80
2021/12/22 15:13:46;;;;;;;23.35;11.68;;;;;;;;;;6295582;28;20424;-79
2021/12/22 15:16:47;;;;;;;24.52;12.52;;;;;;;;;;6313363;28;20066;-81
2021/12/22 15:19:49;;;;;;;24.35;11.20;;;;;;;;;;6305986;28;20041;-81
2021/12/22 15:22:51;;;;;;;29.23;15.05;;;;;;;;;;6274158;28;20043;-80
2021/12/22 15:25:53;;;;;;;91.68;33.47;;;;;;;;;;6292547;28;20568;-79
2021/12/22 15:29:01;;;;;;;28.13;14.13;;;;;;;;;;6302370;28;20122;-80
2021/12/22 15:32:03;;;;;;;23.80;10.77;;;;;;;;;;6313564;28;20505;-82
2021/12/22 15:35:06;;;;;;;31.75;13.88;;;;;;;;;;6310415;28;20048;-81
2021/12/22 15:38:08;;;;;;;21.70;11.15;;;;;;;;;;6304614;28;20048;-81
2021/12/22 15:41:10;;;;;;;35.80;15.85;;;;;;;;;;6288744;28;20449;-81
2021/12/22 15:44:12;;;;;;;34.97;15.90;;;;;;;;;;6305386;28;20051;-81
2021/12/22 15:47:14;;;;;;;33.75;15.23;;;;;;;;;;6290120;28;20044;-81
2021/12/22 15:50:16;;;;;;;31.17;14.98;;;;;;;;;;6314604;28;20513;-81
2021/12/22 15:53:18;;;;;;;46.42;21.45;;;;;;;;;;6316123;28;20389;-80
2021/12/22 15:56:20;;;;;;;36.10;17.30;;;;;;;;;;6299705;28;20052;-80
2021/12/22 15:59:21;;;;;;;26.95;13.98;;;;;;;;;;6290946;28;20130;-80
2021/12/22 16:02:23;;;;;;;31.17;15.00;;;;;;;;;;6283037;28;20174;-80
2021/12/22 16:05:26;;;;;;;39.83;16.42;;;;;;;;;;6292474;28;20417;-83
2021/12/22 16:08:28;;;;;;;36.25;16.55;;;;;;;;;;6259730;28;20183;-81
2021/12/22 16:11:29;;;;;;;45.33;18.80;;;;;;;;;;6289987;28;20142;-82
2021/12/22 16:14:31;;;;;;;29.52;13.15;;;;;;;;;;6298318;28;20054;-82
2021/12/22 16:17:33;;;;;;;34.08;14.88;;;;;;;;;;6300696;28;20036;-82
2021/12/22 16:20:35;;;;;;;27.90;12.27;;;;;;;;;;6297112;28;20142;-82
2021/12/22 16:23:37;;;;;;;31.92;15.68;;;;;;;;;;6283311;28;20127;-82
2021/12/22 16:26:40;;;;;;;23.77;11.77;;;;;;;;;;6307343;28;20121;-82
2021/12/22 16:29:42;;;;;;;21.73;11.05;;;;;;;;;;6297890;28;20062;-83
2021/12/22 16:32:44;;;;;;;36.47;16.17;;;;;;;;;;6318897;28;20783;-82
2021/12/22 16:35:46;;;;;;;35.53;16.33;;;;;;;;;;6316757;28;20082;-82
2021/12/22 16:38:49;;;;;;;36.45;16.52;;;;;;;;;;6287768;28;20060;-83
2021/12/22 16:41:50;;;;;;;29.90;13.45;;;;;;;;;;6275634;28;20405;-82
2021/12/22 16:44:52;;;;;;;37.50;15.80;;;;;;;;;;6267634;28;20135;-83
2021/12/22 16:47:54;;;;;;;41.17;18.45;;;;;;;;;;6296710;28;20064;-83
2021/12/22 16:50:57;;;;;;;49.03;22.98;;;;;;;;;;6272414;28;20040;-83
2021/12/22 16:53:59;;;;;;;41.38;19.70;;;;;;;;;;6308038;28;20119;-82
2021/12/22 16:57:01;;;;;;;32.92;17.05;;;;;;;;;;6317982;28;20040;-82
2021/12/22 17:00:09;;;;;;;35.45;16.40;;;;;;;;;;6317859;28;20040;-83
2021/12/22 17:03:11;;;;;;;39.67;18.73;;;;;;;;;;6277175;28;20119;-82
2021/12/22 17:06:13;;;;;;;56.70;22.70;;;;;;;;;;6292987;28;20098;-82
2021/12/22 17:09:14;;;;;;;45.65;19.48;;;;;;;;;;6293523;28;20040;-81
2021/12/22 17:12:16;;;;;;;41.92;19.75;;;;;;;;;;6274072;28;20123;-81
2021/12/22 17:15:18;;;;;;;110.93;36.22;;;;;;;;;;6287554;28;20069;-83
2021/12/22 17:18:20;;;;;;;111.55;38.22;;;;;;;;;;6310541;28;20036;-81
2021/12/22 17:21:21;;;;;;;57.55;21.02;;;;;;;;;;6319712;28;20131;-83
2021/12/22 17:24:23;;;;;;;41.15;16.35;;;;;;;;;;6293139;28;20051;-81
2021/12/22 17:27:25;;;;;;;35.15;18.40;;;;;;;;;;6282695;28;20044;-82
2021/12/22 17:30:27;;;;;;;38.05;16.23;;;;;;;;;;6310668;28;20048;-82
2021/12/22 17:33:29;;;;;;;61.35;24.30;;;;;;;;;;6293072;28;20118;-82
2021/12/22 17:36:31;;;;;;;35.17;15.75;;;;;;;;;;6302248;28;20609;-83
2021/12/22 17:39:33;;;;;;;37.38;16.20;;;;;;;;;;6318147;28;20051;-83
2021/12/22 17:42:41;;;;;;;44.70;20.13;;;;;;;;;;6304175;28;20082;-83
2021/12/22 17:45:44;;;;;;;44.35;20.60;;;;;;;;;;6278711;28;20119;-83
2021/12/22 17:48:45;;;;;;;34.28;15.93;;;;;;;;;;6301140;28;20070;-82
2021/12/22 17:51:47;;;;;;;32.55;15.20;;;;;;;;;;6291311;28;20043;-82
2021/12/22 17:55:09;;;;;;;34.75;16.08;;;;;;;;;;6278557;28;20053;-83
2021/12/22 17:58:12;;;;;;;36.70;16.08;;;;;;;;;;6279336;28;20048;-82
2021/12/22 18:01:15;;;;;;;32.38;14.95;;;;;;;;;;6291438;28;20068;-83
2021/12/22 18:04:18;;;;;;;;;;;;;;;;;;6275058;28;20041;-83
2021/12/22 18:07:19;;;;;;;65.13;23.13;;;;;;;;;;6294705;28;19942;-84
2021/12/22 18:10:23;;;;;;;44.35;17.77;;;;;;;;;;6265438;28;20040;-83
2021/12/22 18:13:25;;;;;;;50.55;19.75;;;;;;;;;;6285000;28;20044;-85
2021/12/22 18:16:27;;;;;;;37.97;16.00;;;;;;;;;;6286319;28;20048;-84
2021/12/22 18:19:30;;;;;;;31.02;15.60;;;;;;;;;;6303356;28;20032;-82
2021/12/22 18:22:32;;;;;;;;;;;;;;;;;;6303039;28;20047;-84
2021/12/22 18:25:33;;;;;;;31.45;12.73;;;;;;;;;;6315071;28;19951;-84
2021/12/22 18:28:35;;;;;;;36.72;16.23;;;;;;;;;;6286590;28;20585;-84
2021/12/22 18:31:39;;;;;;;35.25;16.23;;;;;;;;;;6320289;28;20036;-84
2021/12/22 18:34:41;;;;;;;32.13;15.40;;;;;;;;;;6297708;28;20040;-84
2021/12/22 18:37:59;;;;;;;31.73;15.45;;;;;;;;;;6265260;28;20052;-84